sensor_id;sensor_type;location;lat;lon;timestamp;temperature;humidity
12335;DHT22;6233;51.560;9.986;2023-03-01T00:01:34;-1.00;99.90
12335;DHT22;6233;51.560;9.986;2023-03-01T00:04:36;-0.90;99.90
12335;DHT22;6233;51.560;9.986;2023-03-01T00:07:38;-0.90;99.90
12335;DHT22;6233;51.560;9.986;2023-03-01T00:10:39;-1.00;99.90
12335;DHT22;6233;51.560;9.986;2023-03-01T00:13:42;-1.00;99.90
12335;DHT22;6233;51.560;9.986;2023-03-01T00:16:45;-1.00;99.90
12335;DHT22;6233;51.560;9.986;2023-03-01T00:19:47;-1.00;99.90
12335;DHT22;6233;51.560;9.986;2023-03-01T00:22:48;-1.00;99.90
12335;DHT22;6233;51.560;9.986;2023-03-01T00:25:50;-1.00;99.90
12335;DHT22;6233;51.560;9.986;2023-03-01T00:28:53;-1.10;99.90
12335;DHT22;6233;51.560;9.986;2023-03-01T00:31:56;-1.00;99.90
12335;DHT22;6233;51.560;9.986;2023-03-01T00:34:58;-1.00;99.90
12335;DHT22;6233;51.560;9.986;2023-03-01T00:38:00;-1.00;99.90
12335;DHT22;6233;51.560;9.986;2023-03-01T00:41:09;-1.00;99.90
12335;DHT22;6233;51.560;9.986;2023-03-01T00:44:11;-0.90;99.90
12335;DHT22;6233;51.560;9.986;2023-03-01T00:47:13;-0.90;99.90
12335;DHT22;6233;51.560;9.986;2023-03-01T00:50:15;-0.90;99.90
12335;DHT22;6233;51.560;9.986;2023-03-01T00:53:17;-0.90;99.90
12335;DHT22;6233;51.560;9.986;2023-03-01T00:56:19;-0.90;99.90
12335;DHT22;6233;51.560;9.986;2023-03-01T00:59:21;-0.90;99.90
12335;DHT22;6233;51.560;9.986;2023-03-01T01:02:23;-1.00;99.90
12335;DHT22;6233;51.560;9.986;2023-03-01T01:05:25;-1.00;99.90
12335;DHT22;6233;51.560;9.986;2023-03-01T01:08:26;-1.00;99.90
12335;DHT22;6233;51.560;9.986;2023-03-01T01:11:29;-0.90;99.90
12335;DHT22;6233;51.560;9.986;2023-03-01T01:14:31;-1.00;99.90
12335;DHT22;6233;51.560;9.986;2023-03-01T01:17:33;-1.00;99.90
12335;DHT22;6233;51.560;9.986;2023-03-01T01:20:35;-1.10;99.90
12335;DHT22;6233;51.560;9.986;2023-03-01T01:23:39;-1.10;99.90
12335;DHT22;6233;51.560;9.986;2023-03-01T01:26:41;-1.10;99.90
12335;DHT22;6233;51.560;9.986;2023-03-01T01:29:43;-1.10;99.90
12335;DHT22;6233;51.560;9.986;2023-03-01T01:32:45;-1.20;99.90
12335;DHT22;6233;51.560;9.986;2023-03-01T01:35:47;-1.30;99.90
12335;DHT22;6233;51.560;9.986;2023-03-01T01:38:49;-1.20;99.90
12335;DHT22;6233;51.560;9.986;2023-03-01T01:41:50;-1.20;99.90
12335;DHT22;6233;51.560;9.986;2023-03-01T01:45:31;-1.20;99.90
12335;DHT22;6233;51.560;9.986;2023-03-01T01:48:42;-1.20;99.90
12335;DHT22;6233;51.560;9.986;2023-03-01T01:51:47;-1.30;99.90
12335;DHT22;6233;51.560;9.986;2023-03-01T01:55:09;-1.30;99.90
12335;DHT22;6233;51.560;9.986;2023-03-01T01:58:15;-1.30;99.90
12335;DHT22;6233;51.560;9.986;2023-03-01T02:01:19;-1.30;99.90
12335;DHT22;6233;51.560;9.986;2023-03-01T02:04:22;-1.20;99.90
12335;DHT22;6233;51.560;9.986;2023-03-01T02:07:24;-1.20;99.90
12335;DHT22;6233;51.560;9.986;2023-03-01T02:10:28;-1.20;99.90
12335;DHT22;6233;51.560;9.986;2023-03-01T02:13:31;-1.30;99.90
12335;DHT22;6233;51.560;9.986;2023-03-01T02:16:33;-1.30;99.90
12335;DHT22;6233;51.560;9.986;2023-03-01T02:20:07;-1.40;99.90
12335;DHT22;6233;51.560;9.986;2023-03-01T02:23:11;-1.30;99.90
12335;DHT22;6233;51.560;9.986;2023-03-01T02:26:40;-1.20;99.90
12335;DHT22;6233;51.560;9.986;2023-03-01T02:29:43;-1.30;99.90
12335;DHT22;6233;51.560;9.986;2023-03-01T02:32:46;-1.30;99.90
12335;DHT22;6233;51.560;9.986;2023-03-01T02:35:48;-1.30;99.90
12335;DHT22;6233;51.560;9.986;2023-03-01T02:38:53;-1.30;99.90
12335;DHT22;6233;51.560;9.986;2023-03-01T02:41:57;-1.30;99.90
12335;DHT22;6233;51.560;9.986;2023-03-01T02:45:00;-1.30;99.90
12335;DHT22;6233;51.560;9.986;2023-03-01T02:48:02;-1.40;99.90
12335;DHT22;6233;51.560;9.986;2023-03-01T02:51:18;-1.30;99.90
12335;DHT22;6233;51.560;9.986;2023-03-01T02:57:44;-1.40;99.90
12335;DHT22;6233;51.560;9.986;2023-03-01T03:00:47;-1.40;99.90
12335;DHT22;6233;51.560;9.986;2023-03-01T03:03:50;-1.40;99.90
12335;DHT22;6233;51.560;9.986;2023-03-01T03:06:52;-1.30;99.90
12335;DHT22;6233;51.560;9.986;2023-03-01T03:09:54;-1.30;99.90
12335;DHT22;6233;51.560;9.986;2023-03-01T03:13:01;-1.30;99.90
12335;DHT22;6233;51.560;9.986;2023-03-01T03:16:03;-1.30;99.90
12335;DHT22;6233;51.560;9.986;2023-03-01T03:19:06;-1.20;99.90
12335;DHT22;6233;51.560;9.986;2023-03-01T03:22:07;-1.30;99.90
12335;DHT22;6233;51.560;9.986;2023-03-01T03:25:10;-1.40;99.90
12335;DHT22;6233;51.560;9.986;2023-03-01T03:28:12;-1.30;99.90
12335;DHT22;6233;51.560;9.986;2023-03-01T03:31:13;-1.30;99.90
12335;DHT22;6233;51.560;9.986;2023-03-01T03:34:15;-1.30;99.90
12335;DHT22;6233;51.560;9.986;2023-03-01T03:37:19;-1.30;99.90
12335;DHT22;6233;51.560;9.986;2023-03-01T03:40:41;-1.30;99.90
12335;DHT22;6233;51.560;9.986;2023-03-01T03:43:43;-1.30;99.90
12335;DHT22;6233;51.560;9.986;2023-03-01T03:46:45;-1.30;99.90
12335;DHT22;6233;51.560;9.986;2023-03-01T03:49:46;-1.40;99.90
12335;DHT22;6233;51.560;9.986;2023-03-01T03:52:48;-1.40;99.90
12335;DHT22;6233;51.560;9.986;2023-03-01T03:55:50;-1.40;99.90
12335;DHT22;6233;51.560;9.986;2023-03-01T03:58:53;-1.40;99.90
12335;DHT22;6233;51.560;9.986;2023-03-01T04:01:54;-1.40;99.90
12335;DHT22;6233;51.560;9.986;2023-03-01T04:04:56;-1.40;99.90
12335;DHT22;6233;51.560;9.986;2023-03-01T04:07:58;-1.50;99.90
12335;DHT22;6233;51.560;9.986;2023-03-01T04:11:04;-1.50;99.90
12335;DHT22;6233;51.560;9.986;2023-03-01T04:14:24;-1.50;99.90
12335;DHT22;6233;51.560;9.986;2023-03-01T04:17:27;-1.50;99.90
12335;DHT22;6233;51.560;9.986;2023-03-01T04:20:31;-1.50;99.90
12335;DHT22;6233;51.560;9.986;2023-03-01T04:23:34;-1.50;99.90
12335;DHT22;6233;51.560;9.986;2023-03-01T04:26:37;-1.50;99.90
12335;DHT22;6233;51.560;9.986;2023-03-01T04:29:39;-1.60;99.90
12335;DHT22;6233;51.560;9.986;2023-03-01T04:32:40;-1.50;99.90
12335;DHT22;6233;51.560;9.986;2023-03-01T04:35:42;-1.60;99.90
12335;DHT22;6233;51.560;9.986;2023-03-01T04:38:45;-1.70;99.90
12335;DHT22;6233;51.560;9.986;2023-03-01T04:41:50;-1.60;99.90
12335;DHT22;6233;51.560;9.986;2023-03-01T04:44:52;-1.60;99.90
12335;DHT22;6233;51.560;9.986;2023-03-01T04:47:54;-1.70;99.90
12335;DHT22;6233;51.560;9.986;2023-03-01T04:50:55;-1.80;99.90
12335;DHT22;6233;51.560;9.986;2023-03-01T04:53:57;-1.80;99.90
12335;DHT22;6233;51.560;9.986;2023-03-01T04:57:00;-1.80;99.90
12335;DHT22;6233;51.560;9.986;2023-03-01T05:00:02;-1.90;99.90
12335;DHT22;6233;51.560;9.986;2023-03-01T05:03:21;-1.90;99.90
12335;DHT22;6233;51.560;9.986;2023-03-01T05:06:23;-1.90;99.90
12335;DHT22;6233;51.560;9.986;2023-03-01T05:09:25;-2.00;99.90
12335;DHT22;6233;51.560;9.986;2023-03-01T05:12:26;-2.00;99.90
12335;DHT22;6233;51.560;9.986;2023-03-01T05:15:30;-1.90;99.90
12335;DHT22;6233;51.560;9.986;2023-03-01T05:18:33;-1.90;99.90
12335;DHT22;6233;51.560;9.986;2023-03-01T05:21:35;-1.90;99.90
12335;DHT22;6233;51.560;9.986;2023-03-01T05:24:59;-1.90;99.90
12335;DHT22;6233;51.560;9.986;2023-03-01T05:28:02;-2.00;99.90
12335;DHT22;6233;51.560;9.986;2023-03-01T05:31:06;-1.90;99.90
12335;DHT22;6233;51.560;9.986;2023-03-01T05:34:11;-1.90;99.90
12335;DHT22;6233;51.560;9.986;2023-03-01T05:37:14;-1.90;99.90
12335;DHT22;6233;51.560;9.986;2023-03-01T05:40:19;-1.90;99.90
12335;DHT22;6233;51.560;9.986;2023-03-01T05:43:22;-2.00;99.90
12335;DHT22;6233;51.560;9.986;2023-03-01T05:46:23;-1.90;99.90
12335;DHT22;6233;51.560;9.986;2023-03-01T05:49:26;-1.90;99.90
12335;DHT22;6233;51.560;9.986;2023-03-01T05:52:27;-1.90;99.90
12335;DHT22;6233;51.560;9.986;2023-03-01T05:55:30;-1.90;99.90
12335;DHT22;6233;51.560;9.986;2023-03-01T05:58:32;-1.90;99.90
12335;DHT22;6233;51.560;9.986;2023-03-01T06:01:34;-1.90;99.90
12335;DHT22;6233;51.560;9.986;2023-03-01T06:04:36;-1.80;99.90
12335;DHT22;6233;51.560;9.986;2023-03-01T06:07:38;-1.80;99.90
12335;DHT22;6233;51.560;9.986;2023-03-01T06:10:40;-1.90;99.90
12335;DHT22;6233;51.560;9.986;2023-03-01T06:13:43;-1.90;99.90
12335;DHT22;6233;51.560;9.986;2023-03-01T06:16:45;-1.90;99.90
12335;DHT22;6233;51.560;9.986;2023-03-01T06:19:47;-1.90;99.90
12335;DHT22;6233;51.560;9.986;2023-03-01T06:22:49;-1.80;99.90
12335;DHT22;6233;51.560;9.986;2023-03-01T06:25:51;-1.70;99.90
12335;DHT22;6233;51.560;9.986;2023-03-01T06:28:53;-1.60;99.90
12335;DHT22;6233;51.560;9.986;2023-03-01T06:31:55;-1.40;99.90
12335;DHT22;6233;51.560;9.986;2023-03-01T06:34:56;-1.20;99.90
12335;DHT22;6233;51.560;9.986;2023-03-01T06:38:01;-0.80;99.90
12335;DHT22;6233;51.560;9.986;2023-03-01T06:41:03;-0.60;99.90
12335;DHT22;6233;51.560;9.986;2023-03-01T06:44:05;-0.30;99.90
12335;DHT22;6233;51.560;9.986;2023-03-01T06:47:07;-0.10;99.90
12335;DHT22;6233;51.560;9.986;2023-03-01T06:50:09;0.00;99.90
12335;DHT22;6233;51.560;9.986;2023-03-01T06:53:11;0.10;99.90
12335;DHT22;6233;51.560;9.986;2023-03-01T06:56:13;0.30;99.90
12335;DHT22;6233;51.560;9.986;2023-03-01T06:59:15;0.50;99.90
12335;DHT22;6233;51.560;9.986;2023-03-01T07:02:17;0.60;99.90
12335;DHT22;6233;51.560;9.986;2023-03-01T07:05:19;0.80;99.90
12335;DHT22;6233;51.560;9.986;2023-03-01T07:08:22;1.00;99.90
12335;DHT22;6233;51.560;9.986;2023-03-01T07:11:24;1.20;99.90
12335;DHT22;6233;51.560;9.986;2023-03-01T07:14:26;1.40;99.90
12335;DHT22;6233;51.560;9.986;2023-03-01T07:17:27;1.60;99.90
12335;DHT22;6233;51.560;9.986;2023-03-01T07:20:29;1.80;99.90
12335;DHT22;6233;51.560;9.986;2023-03-01T07:23:31;1.90;99.90
12335;DHT22;6233;51.560;9.986;2023-03-01T07:26:33;2.10;99.90
12335;DHT22;6233;51.560;9.986;2023-03-01T07:29:35;2.20;99.90
12335;DHT22;6233;51.560;9.986;2023-03-01T07:32:38;2.40;99.90
12335;DHT22;6233;51.560;9.986;2023-03-01T07:35:40;2.60;99.90
12335;DHT22;6233;51.560;9.986;2023-03-01T07:38:41;2.80;99.90
12335;DHT22;6233;51.560;9.986;2023-03-01T07:41:43;3.00;99.90
12335;DHT22;6233;51.560;9.986;2023-03-01T07:44:45;3.30;99.90
12335;DHT22;6233;51.560;9.986;2023-03-01T07:47:46;3.40;99.90
12335;DHT22;6233;51.560;9.986;2023-03-01T07:50:48;3.40;99.90
12335;DHT22;6233;51.560;9.986;2023-03-01T07:53:50;3.50;99.90
12335;DHT22;6233;51.560;9.986;2023-03-01T07:56:51;3.50;99.90
12335;DHT22;6233;51.560;9.986;2023-03-01T07:59:53;3.70;99.90
12335;DHT22;6233;51.560;9.986;2023-03-01T08:02:59;3.70;99.90
12335;DHT22;6233;51.560;9.986;2023-03-01T08:06:07;3.80;99.90
12335;DHT22;6233;51.560;9.986;2023-03-01T08:09:09;3.80;99.90
12335;DHT22;6233;51.560;9.986;2023-03-01T08:12:10;3.70;99.90
12335;DHT22;6233;51.560;9.986;2023-03-01T08:15:12;3.60;99.90
12335;DHT22;6233;51.560;9.986;2023-03-01T08:18:15;3.50;99.90
12335;DHT22;6233;51.560;9.986;2023-03-01T08:21:19;3.50;99.90
12335;DHT22;6233;51.560;9.986;2023-03-01T08:24:20;3.50;99.90
12335;DHT22;6233;51.560;9.986;2023-03-01T08:27:22;3.60;99.90
12335;DHT22;6233;51.560;9.986;2023-03-01T08:30:25;3.60;99.90
12335;DHT22;6233;51.560;9.986;2023-03-01T08:33:27;3.70;99.90
12335;DHT22;6233;51.560;9.986;2023-03-01T08:36:34;3.80;99.90
12335;DHT22;6233;51.560;9.986;2023-03-01T08:39:37;3.70;99.90
12335;DHT22;6233;51.560;9.986;2023-03-01T08:42:42;3.80;99.90
12335;DHT22;6233;51.560;9.986;2023-03-01T08:45:48;3.70;99.90
12335;DHT22;6233;51.560;9.986;2023-03-01T08:48:50;3.70;99.90
12335;DHT22;6233;51.560;9.986;2023-03-01T08:51:52;3.70;99.90
12335;DHT22;6233;51.560;9.986;2023-03-01T08:55:05;4.10;99.90
12335;DHT22;6233;51.560;9.986;2023-03-01T08:58:07;4.10;99.90
12335;DHT22;6233;51.560;9.986;2023-03-01T09:01:10;4.20;99.90
12335;DHT22;6233;51.560;9.986;2023-03-01T09:04:14;4.30;99.90
12335;DHT22;6233;51.560;9.986;2023-03-01T09:07:16;4.10;99.90
12335;DHT22;6233;51.560;9.986;2023-03-01T09:10:17;4.20;99.90
12335;DHT22;6233;51.560;9.986;2023-03-01T09:13:19;4.10;99.90
12335;DHT22;6233;51.560;9.986;2023-03-01T09:16:22;4.10;99.90
12335;DHT22;6233;51.560;9.986;2023-03-01T09:19:24;3.90;99.90
12335;DHT22;6233;51.560;9.986;2023-03-01T09:22:27;3.70;99.90
12335;DHT22;6233;51.560;9.986;2023-03-01T09:25:29;3.90;99.90
12335;DHT22;6233;51.560;9.986;2023-03-01T09:28:31;4.10;99.90
12335;DHT22;6233;51.560;9.986;2023-03-01T09:31:33;4.00;99.90
12335;DHT22;6233;51.560;9.986;2023-03-01T09:34:35;4.20;99.90
12335;DHT22;6233;51.560;9.986;2023-03-01T09:37:56;4.30;99.90
12335;DHT22;6233;51.560;9.986;2023-03-01T09:41:00;4.30;99.90
12335;DHT22;6233;51.560;9.986;2023-03-01T09:47:25;4.50;99.90
12335;DHT22;6233;51.560;9.986;2023-03-01T09:50:35;4.80;99.90
12335;DHT22;6233;51.560;9.986;2023-03-01T09:53:37;4.80;99.90
12335;DHT22;6233;51.560;9.986;2023-03-01T09:56:44;4.80;99.90
12335;DHT22;6233;51.560;9.986;2023-03-01T10:00:18;4.50;99.90
12335;DHT22;6233;51.560;9.986;2023-03-01T10:03:36;4.60;99.90
12335;DHT22;6233;51.560;9.986;2023-03-01T10:06:45;4.40;99.90
12335;DHT22;6233;51.560;9.986;2023-03-01T10:09:53;4.50;99.90
12335;DHT22;6233;51.560;9.986;2023-03-01T10:12:56;4.30;99.90
12335;DHT22;6233;51.560;9.986;2023-03-01T10:16:05;4.30;99.90
12335;DHT22;6233;51.560;9.986;2023-03-01T10:19:17;4.50;99.90
12335;DHT22;6233;51.560;9.986;2023-03-01T10:22:26;4.60;99.90
12335;DHT22;6233;51.560;9.986;2023-03-01T10:32:04;4.80;99.90
12335;DHT22;6233;51.560;9.986;2023-03-01T10:35:26;5.00;99.90
12335;DHT22;6233;51.560;9.986;2023-03-01T10:38:31;4.80;99.90
12335;DHT22;6233;51.560;9.986;2023-03-01T10:41:33;4.40;99.90
12335;DHT22;6233;51.560;9.986;2023-03-01T10:44:43;4.40;99.90
12335;DHT22;6233;51.560;9.986;2023-03-01T10:47:45;4.40;99.90
12335;DHT22;6233;51.560;9.986;2023-03-01T10:50:49;4.60;99.90
12335;DHT22;6233;51.560;9.986;2023-03-01T10:53:52;4.70;99.90
12335;DHT22;6233;51.560;9.986;2023-03-01T10:56:57;4.80;99.90
12335;DHT22;6233;51.560;9.986;2023-03-01T11:00:20;4.80;99.90
12335;DHT22;6233;51.560;9.986;2023-03-01T11:03:37;4.80;99.90
12335;DHT22;6233;51.560;9.986;2023-03-01T11:06:42;4.60;99.90
12335;DHT22;6233;51.560;9.986;2023-03-01T11:09:44;4.50;99.90
12335;DHT22;6233;51.560;9.986;2023-03-01T11:12:46;4.50;99.90
12335;DHT22;6233;51.560;9.986;2023-03-01T11:16:06;4.70;99.90
12335;DHT22;6233;51.560;9.986;2023-03-01T11:22:14;4.80;99.90
12335;DHT22;6233;51.560;9.986;2023-03-01T11:25:26;4.80;99.90
12335;DHT22;6233;51.560;9.986;2023-03-01T11:28:30;4.50;99.90
12335;DHT22;6233;51.560;9.986;2023-03-01T11:31:32;4.40;99.90
12335;DHT22;6233;51.560;9.986;2023-03-01T11:34:48;4.50;99.90
12335;DHT22;6233;51.560;9.986;2023-03-01T11:41:05;4.60;99.90
12335;DHT22;6233;51.560;9.986;2023-03-01T11:44:24;4.60;99.90
12335;DHT22;6233;51.560;9.986;2023-03-01T11:47:45;4.50;99.90
12335;DHT22;6233;51.560;9.986;2023-03-01T11:50:50;4.40;99.90
12335;DHT22;6233;51.560;9.986;2023-03-01T11:54:34;4.40;99.90
12335;DHT22;6233;51.560;9.986;2023-03-01T11:58:08;4.60;99.90
12335;DHT22;6233;51.560;9.986;2023-03-01T12:17:40;4.60;99.90
12335;DHT22;6233;51.560;9.986;2023-03-01T12:21:16;4.60;99.90
12335;DHT22;6233;51.560;9.986;2023-03-01T12:27:55;4.60;99.90
12335;DHT22;6233;51.560;9.986;2023-03-01T12:47:56;4.60;99.90
12335;DHT22;6233;51.560;9.986;2023-03-01T12:51:02;4.60;99.90
12335;DHT22;6233;51.560;9.986;2023-03-01T12:54:16;4.60;99.90
12335;DHT22;6233;51.560;9.986;2023-03-01T12:57:24;4.70;99.90
12335;DHT22;6233;51.560;9.986;2023-03-01T13:01:19;4.70;99.90
12335;DHT22;6233;51.560;9.986;2023-03-01T13:07:25;4.60;99.90
12335;DHT22;6233;51.560;9.986;2023-03-01T13:13:42;4.70;99.90
12335;DHT22;6233;51.560;9.986;2023-03-01T13:16:44;4.70;99.90
12335;DHT22;6233;51.560;9.986;2023-03-01T13:19:59;4.70;99.90
12335;DHT22;6233;51.560;9.986;2023-03-01T13:23:07;4.70;99.90
12335;DHT22;6233;51.560;9.986;2023-03-01T13:26:17;4.80;99.90
12335;DHT22;6233;51.560;9.986;2023-03-01T13:29:46;4.80;99.90
12335;DHT22;6233;51.560;9.986;2023-03-01T13:32:48;4.70;99.90
12335;DHT22;6233;51.560;9.986;2023-03-01T13:35:50;4.80;99.90
12335;DHT22;6233;51.560;9.986;2023-03-01T13:42:00;4.80;99.90
12335;DHT22;6233;51.560;9.986;2023-03-01T13:45:03;4.80;99.90
12335;DHT22;6233;51.560;9.986;2023-03-01T13:48:16;4.90;99.90
12335;DHT22;6233;51.560;9.986;2023-03-01T13:51:26;4.90;99.90
12335;DHT22;6233;51.560;9.986;2023-03-01T13:54:31;4.90;99.90
12335;DHT22;6233;51.560;9.986;2023-03-01T13:57:34;4.90;99.90
12335;DHT22;6233;51.560;9.986;2023-03-01T14:00:39;4.90;99.90
12335;DHT22;6233;51.560;9.986;2023-03-01T14:03:42;4.90;99.90
12335;DHT22;6233;51.560;9.986;2023-03-01T14:06:45;5.00;99.90
12335;DHT22;6233;51.560;9.986;2023-03-01T14:09:52;5.00;99.90
12335;DHT22;6233;51.560;9.986;2023-03-01T14:13:20;5.00;99.90
12335;DHT22;6233;51.560;9.986;2023-03-01T14:19:56;4.90;99.90
12335;DHT22;6233;51.560;9.986;2023-03-01T14:23:02;4.90;99.90
12335;DHT22;6233;51.560;9.986;2023-03-01T14:26:10;5.00;99.90
12335;DHT22;6233;51.560;9.986;2023-03-01T14:29:36;5.00;99.90
12335;DHT22;6233;51.560;9.986;2023-03-01T14:32:38;5.00;99.90
12335;DHT22;6233;51.560;9.986;2023-03-01T14:35:40;5.10;99.90
12335;DHT22;6233;51.560;9.986;2023-03-01T14:38:45;5.10;99.90
12335;DHT22;6233;51.560;9.986;2023-03-01T14:41:47;5.00;99.90
12335;DHT22;6233;51.560;9.986;2023-03-01T14:44:51;5.10;99.90
12335;DHT22;6233;51.560;9.986;2023-03-01T14:47:54;5.10;99.90
12335;DHT22;6233;51.560;9.986;2023-03-01T14:50:57;5.10;99.90
12335;DHT22;6233;51.560;9.986;2023-03-01T14:53:59;5.00;99.90
12335;DHT22;6233;51.560;9.986;2023-03-01T14:57:01;5.00;99.90
12335;DHT22;6233;51.560;9.986;2023-03-01T15:00:06;5.00;99.90
12335;DHT22;6233;51.560;9.986;2023-03-01T15:03:14;5.10;99.90
12335;DHT22;6233;51.560;9.986;2023-03-01T15:06:20;5.00;99.90
12335;DHT22;6233;51.560;9.986;2023-03-01T15:09:23;5.00;99.90
12335;DHT22;6233;51.560;9.986;2023-03-01T15:15:44;5.00;99.90
12335;DHT22;6233;51.560;9.986;2023-03-01T15:18:59;5.00;99.90
12335;DHT22;6233;51.560;9.986;2023-03-01T15:22:01;5.00;99.90
12335;DHT22;6233;51.560;9.986;2023-03-01T15:25:33;5.00;99.90
12335;DHT22;6233;51.560;9.986;2023-03-01T15:28:41;5.10;99.90
12335;DHT22;6233;51.560;9.986;2023-03-01T15:31:55;5.10;99.90
12335;DHT22;6233;51.560;9.986;2023-03-01T15:35:38;5.20;99.90
12335;DHT22;6233;51.560;9.986;2023-03-01T15:38:51;5.20;99.90
12335;DHT22;6233;51.560;9.986;2023-03-01T15:41:54;5.00;99.90
12335;DHT22;6233;51.560;9.986;2023-03-01T15:48:22;4.90;99.90
12335;DHT22;6233;51.560;9.986;2023-03-01T15:51:30;4.90;99.90
12335;DHT22;6233;51.560;9.986;2023-03-01T15:54:32;4.90;99.90
12335;DHT22;6233;51.560;9.986;2023-03-01T15:57:34;4.80;99.90
12335;DHT22;6233;51.560;9.986;2023-03-01T16:00:36;4.90;99.90
12335;DHT22;6233;51.560;9.986;2023-03-01T16:03:38;4.80;99.90
12335;DHT22;6233;51.560;9.986;2023-03-01T16:06:39;4.80;99.90
12335;DHT22;6233;51.560;9.986;2023-03-01T16:09:41;4.70;99.90
12335;DHT22;6233;51.560;9.986;2023-03-01T16:12:45;4.70;99.90
12335;DHT22;6233;51.560;9.986;2023-03-01T16:15:48;4.70;99.90
12335;DHT22;6233;51.560;9.986;2023-03-01T16:18:50;4.60;99.90
12335;DHT22;6233;51.560;9.986;2023-03-01T16:21:55;4.60;99.90
12335;DHT22;6233;51.560;9.986;2023-03-01T16:24:57;4.60;99.90
12335;DHT22;6233;51.560;9.986;2023-03-01T16:27:59;4.60;99.90
12335;DHT22;6233;51.560;9.986;2023-03-01T16:31:05;4.50;99.90
12335;DHT22;6233;51.560;9.986;2023-03-01T16:34:07;4.40;99.90
12335;DHT22;6233;51.560;9.986;2023-03-01T16:37:09;4.40;99.90
12335;DHT22;6233;51.560;9.986;2023-03-01T16:43:19;4.30;99.90
12335;DHT22;6233;51.560;9.986;2023-03-01T16:46:28;4.30;99.90
12335;DHT22;6233;51.560;9.986;2023-03-01T16:49:30;4.20;99.90
12335;DHT22;6233;51.560;9.986;2023-03-01T16:52:31;4.10;99.90
12335;DHT22;6233;51.560;9.986;2023-03-01T16:55:36;4.00;99.90
12335;DHT22;6233;51.560;9.986;2023-03-01T16:58:38;3.90;99.90
12335;DHT22;6233;51.560;9.986;2023-03-01T17:01:40;4.00;99.90
12335;DHT22;6233;51.560;9.986;2023-03-01T17:04:45;3.90;99.90
12335;DHT22;6233;51.560;9.986;2023-03-01T17:07:47;3.80;99.90
12335;DHT22;6233;51.560;9.986;2023-03-01T17:10:48;3.70;99.90
12335;DHT22;6233;51.560;9.986;2023-03-01T17:13:50;3.70;99.90
12335;DHT22;6233;51.560;9.986;2023-03-01T17:16:52;3.60;99.90
12335;DHT22;6233;51.560;9.986;2023-03-01T17:19:54;3.50;99.90
12335;DHT22;6233;51.560;9.986;2023-03-01T17:22:56;3.50;99.90
12335;DHT22;6233;51.560;9.986;2023-03-01T17:25:58;3.50;99.90
12335;DHT22;6233;51.560;9.986;2023-03-01T17:29:00;3.40;99.90
12335;DHT22;6233;51.560;9.986;2023-03-01T17:32:02;3.40;99.90
12335;DHT22;6233;51.560;9.986;2023-03-01T17:35:05;3.40;99.90
12335;DHT22;6233;51.560;9.986;2023-03-01T17:38:08;3.30;99.90
12335;DHT22;6233;51.560;9.986;2023-03-01T17:41:10;3.30;99.90
12335;DHT22;6233;51.560;9.986;2023-03-01T17:44:12;3.30;99.90
12335;DHT22;6233;51.560;9.986;2023-03-01T17:47:14;3.20;99.90
12335;DHT22;6233;51.560;9.986;2023-03-01T17:50:16;3.10;99.90
12335;DHT22;6233;51.560;9.986;2023-03-01T17:53:17;3.00;99.90
12335;DHT22;6233;51.560;9.986;2023-03-01T17:56:19;2.90;99.90
12335;DHT22;6233;51.560;9.986;2023-03-01T17:59:21;2.90;99.90
12335;DHT22;6233;51.560;9.986;2023-03-01T18:02:23;2.90;99.90
12335;DHT22;6233;51.560;9.986;2023-03-01T18:05:30;2.90;99.90
12335;DHT22;6233;51.560;9.986;2023-03-01T18:08:32;2.90;99.90
12335;DHT22;6233;51.560;9.986;2023-03-01T18:11:35;2.90;99.90
12335;DHT22;6233;51.560;9.986;2023-03-01T18:14:36;2.90;99.90
12335;DHT22;6233;51.560;9.986;2023-03-01T18:17:38;2.90;99.90
12335;DHT22;6233;51.560;9.986;2023-03-01T18:20:40;2.90;99.90
12335;DHT22;6233;51.560;9.986;2023-03-01T18:23:42;2.90;99.90
12335;DHT22;6233;51.560;9.986;2023-03-01T18:26:43;2.80;99.90
12335;DHT22;6233;51.560;9.986;2023-03-01T18:29:45;2.80;99.90
12335;DHT22;6233;51.560;9.986;2023-03-01T18:32:47;2.70;99.90
12335;DHT22;6233;51.560;9.986;2023-03-01T18:35:49;2.70;99.90
12335;DHT22;6233;51.560;9.986;2023-03-01T18:38:52;2.80;99.90
12335;DHT22;6233;51.560;9.986;2023-03-01T18:41:56;2.80;99.90
12335;DHT22;6233;51.560;9.986;2023-03-01T18:44:58;2.70;99.90
12335;DHT22;6233;51.560;9.986;2023-03-01T18:48:00;2.60;99.90
12335;DHT22;6233;51.560;9.986;2023-03-01T18:51:10;2.60;99.90
12335;DHT22;6233;51.560;9.986;2023-03-01T18:54:13;2.60;99.90
12335;DHT22;6233;51.560;9.986;2023-03-01T18:57:15;2.60;99.90
12335;DHT22;6233;51.560;9.986;2023-03-01T19:00:17;2.60;99.90
12335;DHT22;6233;51.560;9.986;2023-03-01T19:03:19;2.70;99.90
12335;DHT22;6233;51.560;9.986;2023-03-01T19:06:22;2.60;99.90
12335;DHT22;6233;51.560;9.986;2023-03-01T19:09:23;2.60;99.90
12335;DHT22;6233;51.560;9.986;2023-03-01T19:12:25;2.50;99.90
12335;DHT22;6233;51.560;9.986;2023-03-01T19:15:29;2.50;99.90
12335;DHT22;6233;51.560;9.986;2023-03-01T19:18:32;2.40;99.90
12335;DHT22;6233;51.560;9.986;2023-03-01T19:21:34;2.40;99.90
12335;DHT22;6233;51.560;9.986;2023-03-01T19:24:36;2.40;99.90
12335;DHT22;6233;51.560;9.986;2023-03-01T19:27:38;2.40;99.90
12335;DHT22;6233;51.560;9.986;2023-03-01T19:30:40;2.40;99.90
12335;DHT22;6233;51.560;9.986;2023-03-01T19:33:42;2.40;99.90
12335;DHT22;6233;51.560;9.986;2023-03-01T19:36:44;2.40;99.90
12335;DHT22;6233;51.560;9.986;2023-03-01T19:39:46;2.30;99.90
12335;DHT22;6233;51.560;9.986;2023-03-01T19:42:48;2.20;99.90
12335;DHT22;6233;51.560;9.986;2023-03-01T19:45:52;2.30;99.90
12335;DHT22;6233;51.560;9.986;2023-03-01T19:48:55;2.30;99.90
12335;DHT22;6233;51.560;9.986;2023-03-01T19:51:58;2.30;99.90
12335;DHT22;6233;51.560;9.986;2023-03-01T19:55:01;2.30;99.90
12335;DHT22;6233;51.560;9.986;2023-03-01T19:58:10;2.20;99.90
12335;DHT22;6233;51.560;9.986;2023-03-01T20:01:14;2.20;99.90
12335;DHT22;6233;51.560;9.986;2023-03-01T20:04:16;2.10;99.90
12335;DHT22;6233;51.560;9.986;2023-03-01T20:07:19;2.20;99.90
12335;DHT22;6233;51.560;9.986;2023-03-01T20:10:21;2.00;99.90
12335;DHT22;6233;51.560;9.986;2023-03-01T20:13:22;1.90;99.90
12335;DHT22;6233;51.560;9.986;2023-03-01T20:16:24;1.90;99.90
12335;DHT22;6233;51.560;9.986;2023-03-01T20:19:27;2.00;99.90
12335;DHT22;6233;51.560;9.986;2023-03-01T20:22:29;1.90;99.90
12335;DHT22;6233;51.560;9.986;2023-03-01T20:25:31;1.90;99.90
12335;DHT22;6233;51.560;9.986;2023-03-01T20:28:34;1.80;99.90
12335;DHT22;6233;51.560;9.986;2023-03-01T20:31:36;1.80;99.90
12335;DHT22;6233;51.560;9.986;2023-03-01T20:34:39;1.90;99.90
12335;DHT22;6233;51.560;9.986;2023-03-01T20:37:40;1.80;99.90
12335;DHT22;6233;51.560;9.986;2023-03-01T20:40:42;1.80;99.90
12335;DHT22;6233;51.560;9.986;2023-03-01T20:43:44;1.80;99.90
12335;DHT22;6233;51.560;9.986;2023-03-01T20:46:54;1.80;99.90
12335;DHT22;6233;51.560;9.986;2023-03-01T20:49:55;1.90;99.90
12335;DHT22;6233;51.560;9.986;2023-03-01T20:53:01;2.00;99.90
12335;DHT22;6233;51.560;9.986;2023-03-01T20:56:09;1.80;99.90
12335;DHT22;6233;51.560;9.986;2023-03-01T20:59:11;1.80;99.90
12335;DHT22;6233;51.560;9.986;2023-03-01T21:02:13;1.80;99.90
12335;DHT22;6233;51.560;9.986;2023-03-01T21:05:15;1.70;99.90
12335;DHT22;6233;51.560;9.986;2023-03-01T21:08:17;1.70;99.90
12335;DHT22;6233;51.560;9.986;2023-03-01T21:11:21;1.70;99.90
12335;DHT22;6233;51.560;9.986;2023-03-01T21:14:26;1.60;99.90
12335;DHT22;6233;51.560;9.986;2023-03-01T21:17:29;1.60;99.90
12335;DHT22;6233;51.560;9.986;2023-03-01T21:20:30;1.60;99.90